createdAt,value
2023-05-05T00:01:49.226Z,100312.48
2023-05-05T00:04:17.960Z,100312.06
2023-05-05T00:06:45.064Z,100314.27
2023-05-05T00:09:12.734Z,100315.66
2023-05-05T00:11:39.682Z,100318.60
2023-05-05T00:14:06.745Z,100315.75
2023-05-05T00:16:33.708Z,100318.19
2023-05-05T00:19:00.584Z,100318.25
2023-05-05T00:21:31.261Z,100319.04
2023-05-05T00:23:58.110Z,100318.73
2023-05-05T00:26:25.039Z,100322.41
2023-05-05T00:28:52.439Z,100326.27
2023-05-05T00:31:19.386Z,100326.61
2023-05-05T00:33:46.836Z,100322.39
2023-05-05T00:36:14.921Z,100319.29
2023-05-05T00:38:41.871Z,100321.40
2023-05-05T00:41:08.816Z,100320.50
2023-05-05T00:43:36.289Z,100319.40
2023-05-05T00:46:19.395Z,100322.70
2023-05-05T00:48:46.657Z,100321.60
2023-05-05T00:51:15.787Z,100317.67
2023-05-05T00:53:45.101Z,100314.52
2023-05-05T00:56:19.785Z,100308.77
2023-05-05T00:58:46.885Z,100310.00
2023-05-05T01:01:13.943Z,100305.02
2023-05-05T01:03:43.932Z,100303.73
2023-05-05T01:06:30.492Z,100303.42
2023-05-05T01:09:02.111Z,100305.95
2023-05-05T01:11:59.859Z,100304.70
2023-05-05T01:14:40.926Z,100301.98
2023-05-05T01:17:21.338Z,100301.96
2023-05-05T01:20:06.482Z,100300.59
2023-05-05T01:22:36.982Z,100297.92
2023-05-05T01:25:12.516Z,100298.34
2023-05-05T01:27:39.444Z,100299.21
2023-05-05T01:30:28.399Z,100297.94
2023-05-05T01:32:58.374Z,100296.85
2023-05-05T01:35:36.679Z,100295.30
2023-05-05T01:38:11.088Z,100292.51
2023-05-05T01:40:43.730Z,100288.30
2023-05-05T01:43:10.777Z,100279.39
2023-05-05T01:45:38.933Z,100280.36
2023-05-05T01:48:06.463Z,100275.90
2023-05-05T01:50:33.677Z,100275.23
2023-05-05T01:53:00.518Z,100272.89
2023-05-05T01:55:28.826Z,100269.51
2023-05-05T01:57:55.756Z,100263.31
2023-05-05T02:00:25.205Z,100263.42
2023-05-05T02:02:52.211Z,100262.48
2023-05-05T02:05:21.952Z,100258.87
2023-05-05T02:07:49.592Z,100256.77
2023-05-05T02:10:16.746Z,100257.75
2023-05-05T02:12:43.623Z,100254.66
2023-05-05T02:15:11.475Z,100257.85
2023-05-05T02:17:41.871Z,100259.09
2023-05-05T02:20:11.477Z,100258.95
2023-05-05T02:22:38.430Z,100255.39
2023-05-05T02:25:06.151Z,100255.77
2023-05-05T02:27:34.077Z,100252.58
2023-05-05T02:30:04.670Z,100250.25
2023-05-05T02:32:36.169Z,100250.05
2023-05-05T02:35:12.793Z,100248.71
2023-05-05T02:37:41.722Z,100248.27
2023-05-05T02:40:09.589Z,100250.90
2023-05-05T02:42:38.914Z,100255.66
2023-05-05T02:45:15.636Z,100258.73
2023-05-05T02:47:44.999Z,100260.52
2023-05-05T02:50:12.375Z,100257.46
2023-05-05T02:52:43.275Z,100257.92
2023-05-05T02:55:10.599Z,100259.91
2023-05-05T02:58:08.456Z,100256.77
2023-05-05T03:00:47.840Z,100256.64
2023-05-05T03:03:24.178Z,100257.23
2023-05-05T03:06:04.690Z,100257.73
2023-05-05T03:09:07.457Z,100259.39
2023-05-05T03:12:05.568Z,100263.48
2023-05-05T03:14:42.798Z,100263.06
2023-05-05T03:17:12.214Z,100259.10
2023-05-05T03:19:42.139Z,100253.81
2023-05-05T03:22:09.173Z,100254.50
2023-05-05T03:24:36.744Z,100255.66
2023-05-05T03:27:06.178Z,100255.02
2023-05-05T03:29:35.966Z,100255.76
2023-05-05T03:32:04.883Z,100250.46
2023-05-05T03:34:32.731Z,100248.98
2023-05-05T03:37:00.128Z,100258.64
2023-05-05T03:39:27.010Z,100261.19
2023-05-05T03:41:54.605Z,100261.63
2023-05-05T03:44:21.900Z,100263.09
2023-05-05T03:46:48.930Z,100262.04
2023-05-05T03:49:16.216Z,100266.15
2023-05-05T03:51:43.542Z,100262.26
2023-05-05T03:54:10.617Z,100257.98
2023-05-05T03:56:37.741Z,100262.05
2023-05-05T03:59:04.625Z,100262.84
2023-05-05T04:01:31.668Z,100260.30
2023-05-05T04:03:59.055Z,100262.91
2023-05-05T04:06:26.573Z,100264.60
2023-05-05T04:08:54.155Z,100263.01
2023-05-05T04:11:21.521Z,100260.73
2023-05-05T04:13:50.003Z,100261.03
2023-05-05T04:16:17.621Z,100263.48
2023-05-05T04:18:44.907Z,100265.39
2023-05-05T04:21:11.891Z,100268.46
2023-05-05T04:23:39.216Z,100269.20
2023-05-05T04:26:06.821Z,100263.54
2023-05-05T04:28:33.849Z,100265.04
2023-05-05T04:31:02.762Z,100262.52
2023-05-05T04:33:30.911Z,100259.80
2023-05-05T04:35:58.507Z,100261.12
2023-05-05T04:38:25.957Z,100262.49
2023-05-05T04:40:53.352Z,100266.17
2023-05-05T04:43:20.968Z,100271.50
2023-05-05T04:45:55.474Z,100273.68
2023-05-05T04:48:24.768Z,100281.14
2023-05-05T04:50:51.980Z,100282.14
2023-05-05T04:53:19.004Z,100280.48
2023-05-05T04:55:46.035Z,100284.89
2023-05-05T04:58:13.011Z,100287.55
2023-05-05T05:00:39.972Z,100284.11
2023-05-05T05:03:08.433Z,100284.64
2023-05-05T05:05:35.396Z,100284.17
2023-05-05T05:08:02.349Z,100288.05
2023-05-05T05:10:29.713Z,100284.82
2023-05-05T05:12:56.603Z,100281.54
2023-05-05T05:15:23.632Z,100280.50
2023-05-05T05:17:50.494Z,100279.11
2023-05-05T05:20:17.529Z,100277.70
2023-05-05T05:22:44.691Z,100277.45
2023-05-05T05:25:14.328Z,100272.59
2023-05-05T05:27:42.033Z,100274.94
2023-05-05T05:30:11.904Z,100272.09
2023-05-05T05:32:41.262Z,100273.07
2023-05-05T05:35:11.562Z,100272.58
2023-05-05T05:37:39.354Z,100272.34
2023-05-05T05:40:08.117Z,100273.34
2023-05-05T05:42:35.438Z,100268.90
2023-05-05T05:45:07.474Z,100266.55
2023-05-05T05:47:34.652Z,100260.95
2023-05-05T05:50:01.888Z,100262.30
2023-05-05T05:52:29.756Z,100260.32
2023-05-05T05:54:56.643Z,100256.59
2023-05-05T05:57:24.778Z,100255.02
2023-05-05T05:59:52.253Z,100255.86
2023-05-05T06:02:19.289Z,100258.27
2023-05-05T06:04:47.292Z,100259.00
2023-05-05T06:07:14.531Z,100258.29
2023-05-05T06:09:41.863Z,100256.36
2023-05-05T06:12:08.841Z,100255.08
2023-05-05T06:14:36.300Z,100256.56
2023-05-05T06:17:03.458Z,100257.48
2023-05-05T06:19:30.644Z,100250.30
2023-05-05T06:21:57.569Z,100250.17
2023-05-05T06:24:24.858Z,100252.95
2023-05-05T06:26:52.051Z,100250.52
2023-05-05T06:29:18.931Z,100245.92
2023-05-05T06:31:46.485Z,100243.67
2023-05-05T06:34:13.584Z,100242.23
2023-05-05T06:36:40.494Z,100239.64
2023-05-05T06:39:07.405Z,100239.05
2023-05-05T06:41:34.708Z,100239.24
2023-05-05T06:44:02.683Z,100239.41
2023-05-05T06:46:29.652Z,100239.98
2023-05-05T06:48:56.511Z,100239.20
2023-05-05T06:51:23.557Z,100231.59
2023-05-05T06:53:51.264Z,100232.88
2023-05-05T06:56:18.178Z,100236.42
2023-05-05T06:58:45.061Z,100235.88
2023-05-05T07:01:12.206Z,100231.10
2023-05-05T07:03:39.152Z,100225.83
2023-05-05T07:06:06.100Z,100230.45
2023-05-05T07:08:33.026Z,100231.01
2023-05-05T07:11:01.212Z,100231.63
2023-05-05T07:13:28.139Z,100231.45
2023-05-05T07:15:55.100Z,100229.69
2023-05-05T07:18:22.151Z,100227.89
2023-05-05T07:20:49.194Z,100220.39
2023-05-05T07:23:16.236Z,100219.48
2023-05-05T07:25:44.081Z,100218.35
2023-05-05T07:28:11.264Z,100213.14
2023-05-05T07:30:38.274Z,100214.27
2023-05-05T07:33:05.353Z,100213.95
2023-05-05T07:35:32.212Z,100210.09
2023-05-05T07:37:59.079Z,100209.83
2023-05-05T07:40:26.247Z,100206.15
2023-05-05T07:42:53.248Z,100203.34
2023-05-05T07:45:20.100Z,100204.22
2023-05-05T07:47:47.069Z,100206.75
2023-05-05T07:50:14.128Z,100204.61
2023-05-05T07:52:46.880Z,100201.90
2023-05-05T07:55:19.089Z,100196.21
2023-05-05T07:57:46.347Z,100200.41
2023-05-05T08:00:13.993Z,100198.80
2023-05-05T08:02:41.688Z,100195.83
2023-05-05T08:05:09.195Z,100194.38
2023-05-05T08:07:41.099Z,100194.50
2023-05-05T08:10:10.621Z,100192.36
2023-05-05T08:12:37.775Z,100190.34
2023-05-05T08:15:06.239Z,100189.83
2023-05-05T08:17:50.335Z,100181.45
2023-05-05T08:20:18.300Z,100183.13
2023-05-05T08:22:45.366Z,100182.37
2023-05-05T08:25:13.267Z,100177.15
2023-05-05T08:27:41.189Z,100175.20
2023-05-05T08:30:08.759Z,100180.27
2023-05-05T08:32:35.728Z,100179.08
2023-05-05T08:35:03.459Z,100175.67
2023-05-05T08:37:50.133Z,100173.98
2023-05-05T08:40:34.427Z,100168.45
2023-05-05T08:43:01.517Z,100172.33
2023-05-05T08:45:29.293Z,100169.70
2023-05-05T08:47:57.336Z,100168.58
2023-05-05T08:50:28.152Z,100166.50
2023-05-05T08:53:16.646Z,100160.01
2023-05-05T08:55:51.566Z,100161.86
2023-05-05T08:58:19.197Z,100158.54
2023-05-05T09:00:46.595Z,100159.30
2023-05-05T09:03:13.656Z,100155.99
2023-05-05T09:05:42.080Z,100158.16
2023-05-05T09:08:10.569Z,100152.81
2023-05-05T09:10:42.124Z,100150.87
2023-05-05T09:13:09.288Z,100146.64
2023-05-05T09:15:39.102Z,100144.92
2023-05-05T09:18:09.249Z,100142.77
2023-05-05T09:20:37.292Z,100146.05
2023-05-05T09:23:10.960Z,100149.95
2023-05-05T09:25:41.434Z,100144.84
2023-05-05T09:28:16.258Z,100147.86
2023-05-05T09:30:47.078Z,100144.55
2023-05-05T09:33:14.377Z,100143.63
2023-05-05T09:35:54.817Z,100141.54
2023-05-05T09:38:24.037Z,100136.91
2023-05-05T09:40:54.055Z,100131.02
2023-05-05T09:43:23.043Z,100135.30
2023-05-05T09:45:50.894Z,100130.07
2023-05-05T09:48:28.581Z,100131.33
2023-05-05T09:50:56.180Z,100128.64
2023-05-05T09:53:24.182Z,100124.55
2023-05-05T09:55:54.676Z,100120.23
2023-05-05T09:58:26.452Z,100120.73
2023-05-05T10:00:54.615Z,100121.39
2023-05-05T10:03:21.874Z,100125.08
2023-05-05T10:05:53.118Z,100124.42
2023-05-05T10:08:21.295Z,100123.63
2023-05-05T10:10:56.543Z,100122.46
2023-05-05T10:13:24.371Z,100118.57
2023-05-05T10:15:55.735Z,100121.52
2023-05-05T10:18:30.680Z,100120.88
2023-05-05T10:21:01.844Z,100112.81
2023-05-05T10:23:32.501Z,100110.35
2023-05-05T10:26:02.826Z,100107.95
2023-05-05T10:28:46.364Z,100106.89
2023-05-05T10:31:31.079Z,100105.63
2023-05-05T10:34:04.186Z,100104.83
2023-05-05T10:36:32.044Z,100102.61
2023-05-05T10:38:59.265Z,100099.92
2023-05-05T10:41:29.255Z,100095.92
2023-05-05T10:43:59.571Z,100094.37
2023-05-05T10:46:27.680Z,100094.00
2023-05-05T10:49:00.226Z,100091.53
2023-05-05T10:51:40.459Z,100091.10
2023-05-05T10:54:09.032Z,100088.20
2023-05-05T10:56:36.340Z,100085.70
2023-05-05T10:59:03.265Z,100088.84
2023-05-05T11:01:34.475Z,100087.73
2023-05-05T11:04:18.225Z,100087.81
2023-05-05T11:07:14.365Z,100088.45
2023-05-05T11:09:58.238Z,100084.50
2023-05-05T11:12:25.272Z,100080.21
2023-05-05T11:15:26.736Z,100076.09
2023-05-05T11:17:54.693Z,100074.07
2023-05-05T11:20:37.720Z,100075.80
2023-05-05T11:23:05.160Z,100074.66
2023-05-05T11:25:40.928Z,100069.03
2023-05-05T11:28:08.504Z,100063.09
2023-05-05T11:30:36.296Z,100059.79
2023-05-05T11:33:37.134Z,100061.73
2023-05-05T11:36:06.829Z,100059.11
2023-05-05T11:39:19.562Z,100053.63
2023-05-05T11:42:10.109Z,100049.34
2023-05-05T11:44:37.375Z,100049.34
2023-05-05T11:47:04.413Z,100052.48
2023-05-05T11:49:32.134Z,100047.85
2023-05-05T11:52:08.756Z,100043.03
2023-05-05T11:54:36.395Z,100042.13
2023-05-05T11:57:05.579Z,100039.92
2023-05-05T11:59:33.127Z,100039.11
2023-05-05T12:02:00.483Z,100032.36
2023-05-05T12:04:27.806Z,100028.40
2023-05-05T12:06:55.565Z,100024.71
2023-05-05T12:09:22.982Z,100023.58
2023-05-05T12:11:50.808Z,100021.30
2023-05-05T12:14:17.900Z,100019.35
2023-05-05T12:16:57.696Z,100021.75
2023-05-05T12:19:24.799Z,100019.73
2023-05-05T12:21:54.404Z,100017.30
2023-05-05T12:24:21.309Z,100017.20
2023-05-05T12:26:48.314Z,100011.11
2023-05-05T12:29:24.495Z,100013.80
2023-05-05T12:31:51.758Z,100008.92
2023-05-05T12:34:18.883Z,100010.52
2023-05-05T12:36:46.087Z,100003.85
2023-05-05T12:39:13.110Z,100005.23
2023-05-05T12:41:40.248Z,99998.30
2023-05-05T12:44:08.047Z,99995.52
2023-05-05T12:46:45.535Z,99990.33
2023-05-05T12:49:12.614Z,99990.95
2023-05-05T12:51:39.616Z,99986.23
2023-05-05T12:54:07.701Z,99981.16
2023-05-05T12:56:35.474Z,99978.60
2023-05-05T12:59:04.330Z,99980.15
2023-05-05T13:01:31.456Z,99980.39
2023-05-05T13:04:12.229Z,99976.52
2023-05-05T13:06:40.662Z,99972.52
2023-05-05T13:09:07.892Z,99973.42
2023-05-05T13:11:39.203Z,99971.84
2023-05-05T13:14:06.612Z,99970.47
2023-05-05T13:16:34.048Z,99969.67
2023-05-05T13:19:01.048Z,99968.42
2023-05-05T13:21:28.212Z,99963.77
2023-05-05T13:24:01.580Z,99962.09
2023-05-05T13:26:39.360Z,99965.07
2023-05-05T13:29:06.361Z,99967.12
2023-05-05T13:31:33.358Z,99966.27
2023-05-05T13:34:00.410Z,99967.73
2023-05-05T13:36:27.815Z,99963.12
2023-05-05T13:38:54.798Z,99959.46
2023-05-05T13:41:21.704Z,99958.29
2023-05-05T13:43:49.300Z,99958.36
2023-05-05T13:46:20.053Z,99958.83
2023-05-05T13:48:47.493Z,99957.36
2023-05-05T13:51:15.885Z,99956.05
2023-05-05T13:53:44.256Z,99954.11
2023-05-05T13:56:11.360Z,99953.77
2023-05-05T13:58:38.251Z,99951.83
2023-05-05T14:01:23.719Z,99946.71
2023-05-05T14:04:05.414Z,99946.59
2023-05-05T14:06:34.093Z,99946.48
2023-05-05T14:09:01.039Z,99943.88
2023-05-05T14:11:28.109Z,99940.98
2023-05-05T14:13:55.068Z,99939.11
2023-05-05T14:16:22.050Z,99939.60
2023-05-05T14:18:49.025Z,99937.71
2023-05-05T14:21:16.008Z,99934.94
2023-05-05T14:23:42.921Z,99934.02
2023-05-05T14:26:09.781Z,99933.00
2023-05-05T14:28:36.660Z,99932.41
2023-05-05T14:31:03.716Z,99934.33
2023-05-05T14:33:30.657Z,99927.87
2023-05-05T14:35:57.535Z,99925.98
2023-05-05T14:38:24.507Z,99926.55
2023-05-05T14:40:51.509Z,99919.85
2023-05-05T14:43:18.457Z,99918.04
2023-05-05T14:45:45.530Z,99914.70
2023-05-05T14:48:33.033Z,99909.64
2023-05-05T14:51:17.005Z,99910.29
2023-05-05T14:53:43.966Z,99911.46
2023-05-05T14:56:31.041Z,99906.20
2023-05-05T14:59:11.689Z,99902.71
2023-05-05T15:01:38.611Z,99901.70
2023-05-05T15:04:05.955Z,99900.87
2023-05-05T15:06:32.948Z,99904.58
2023-05-05T15:09:00.132Z,99901.54
2023-05-05T15:11:27.017Z,99902.87
2023-05-05T15:13:54.011Z,99903.83
2023-05-05T15:16:21.328Z,99904.83
2023-05-05T15:18:48.319Z,99904.57
2023-05-05T15:21:15.609Z,99902.73
2023-05-05T15:23:42.626Z,99904.23
2023-05-05T15:26:09.514Z,99904.08
2023-05-05T15:28:36.543Z,99901.39
2023-05-05T15:31:03.702Z,99901.52
2023-05-05T15:33:31.190Z,99902.20
2023-05-05T15:35:58.109Z,99903.64
2023-05-05T15:38:25.700Z,99902.38
2023-05-05T15:40:52.715Z,99900.39
2023-05-05T15:43:19.869Z,99896.86
2023-05-05T15:45:46.830Z,99895.66
2023-05-05T15:48:14.021Z,99894.77
2023-05-05T15:50:41.027Z,99898.98
2023-05-05T15:53:07.958Z,99897.54
2023-05-05T15:55:35.951Z,99897.31
2023-05-05T15:58:02.854Z,99899.16
2023-05-05T16:00:31.597Z,99900.70
2023-05-05T16:02:58.597Z,99903.10
2023-05-05T16:05:25.899Z,99904.81
2023-05-05T16:07:53.837Z,99906.14
2023-05-05T16:10:20.969Z,99904.90
2023-05-05T16:12:47.899Z,99903.91
2023-05-05T16:15:14.838Z,99902.10
2023-05-05T16:17:41.776Z,99902.91
2023-05-05T16:20:09.406Z,99902.10
2023-05-05T16:22:37.061Z,99904.40
2023-05-05T16:25:04.385Z,99905.21
2023-05-05T16:27:31.423Z,99904.73
2023-05-05T16:29:59.805Z,99906.08
2023-05-05T16:32:27.029Z,99905.08
2023-05-05T16:34:54.017Z,99903.98
2023-05-05T16:37:20.968Z,99904.54
2023-05-05T16:39:48.024Z,99904.09
2023-05-05T16:42:14.901Z,99902.53
2023-05-05T16:44:41.916Z,99902.44
2023-05-05T16:47:09.506Z,99905.04
2023-05-05T16:49:36.550Z,99907.09
2023-05-05T16:52:03.694Z,99905.41
2023-05-05T16:54:30.897Z,99906.61
2023-05-05T16:56:58.420Z,99904.55
2023-05-05T16:59:25.285Z,99907.42
2023-05-05T17:01:52.265Z,99912.89
2023-05-05T17:04:19.571Z,99909.90
2023-05-05T17:06:46.438Z,99910.95
2023-05-05T17:09:13.330Z,99908.66
2023-05-05T17:11:40.335Z,99906.58
2023-05-05T17:14:07.285Z,99907.52
2023-05-05T17:16:34.593Z,99911.53
2023-05-05T17:19:02.000Z,99916.31
2023-05-05T17:21:29.467Z,99915.46
2023-05-05T17:23:57.018Z,99916.02
2023-05-05T17:26:24.703Z,99917.47
2023-05-05T17:28:52.004Z,99920.41
2023-05-05T17:31:19.121Z,99925.75
2023-05-05T17:33:46.151Z,99925.13
2023-05-05T17:36:13.208Z,99925.82
2023-05-05T17:38:40.138Z,99931.70
2023-05-05T17:41:07.600Z,99930.38
2023-05-05T17:43:34.665Z,99931.19
2023-05-05T17:46:01.965Z,99931.20
2023-05-05T17:48:29.018Z,99933.31
2023-05-05T17:50:56.244Z,99944.84
2023-05-05T17:53:23.395Z,99950.55
2023-05-05T17:55:50.452Z,99954.55
2023-05-05T17:58:17.398Z,99960.20
2023-05-05T18:00:44.371Z,99956.27
2023-05-05T18:03:11.497Z,99957.41
2023-05-05T18:05:39.596Z,99959.54
2023-05-05T18:08:07.045Z,99961.23
2023-05-05T18:10:33.894Z,99967.06
2023-05-05T18:13:00.827Z,99969.59
2023-05-05T18:15:29.901Z,99973.34
2023-05-05T18:17:56.893Z,99973.86
2023-05-05T18:20:23.725Z,99975.02
2023-05-05T18:22:50.600Z,99980.42
2023-05-05T18:25:17.542Z,99981.98
2023-05-05T18:27:44.606Z,99979.88
2023-05-05T18:30:12.111Z,99978.84
2023-05-05T18:32:39.144Z,99982.80
2023-05-05T18:35:07.217Z,99987.18
2023-05-05T18:37:34.550Z,99985.52
2023-05-05T18:40:01.376Z,99986.63
2023-05-05T18:42:28.229Z,99993.51
2023-05-05T18:44:55.130Z,99992.58
2023-05-05T18:47:22.359Z,99991.39
2023-05-05T18:49:49.840Z,99994.55
2023-05-05T18:52:17.175Z,99992.19
2023-05-05T18:54:44.023Z,99999.91
2023-05-05T18:57:11.086Z,99995.05
2023-05-05T18:59:37.918Z,99993.67
2023-05-05T19:02:04.811Z,99991.36
2023-05-05T19:04:32.817Z,99990.48
2023-05-05T19:07:00.331Z,99993.76
2023-05-05T19:09:27.775Z,99993.19
2023-05-05T19:11:54.634Z,99992.91
2023-05-05T19:14:22.391Z,99994.89
2023-05-05T19:16:49.413Z,99992.20
2023-05-05T19:19:16.696Z,99991.60
2023-05-05T19:21:43.556Z,99986.00
2023-05-05T19:24:10.599Z,99989.62
2023-05-05T19:26:37.573Z,99989.70
2023-05-05T19:29:04.632Z,99988.55
2023-05-05T19:31:31.911Z,99987.07
2023-05-05T19:34:03.237Z,99986.27
2023-05-05T19:36:33.802Z,99991.70
2023-05-05T19:39:02.035Z,99993.73
2023-05-05T19:41:30.718Z,99994.89
2023-05-05T19:43:57.708Z,99992.28
2023-05-05T19:46:27.552Z,99992.55
2023-05-05T19:48:54.557Z,99992.39
2023-05-05T19:51:21.593Z,99991.01
2023-05-05T19:53:48.528Z,99990.70
2023-05-05T19:56:15.483Z,99991.37
2023-05-05T19:59:01.778Z,99992.39
2023-05-05T20:01:29.145Z,99987.83
2023-05-05T20:03:56.667Z,99987.38
2023-05-05T20:06:23.859Z,99986.09
2023-05-05T20:08:51.010Z,99990.20
2023-05-05T20:11:18.382Z,99991.35
2023-05-05T20:13:45.349Z,99989.35
2023-05-05T20:16:12.580Z,99988.64
2023-05-05T20:18:40.464Z,99989.01
2023-05-05T20:21:07.352Z,99988.85
2023-05-05T20:23:34.453Z,99987.92
2023-05-05T20:26:01.812Z,99985.25
2023-05-05T20:28:31.699Z,99984.25
2023-05-05T20:30:58.728Z,99979.02
2023-05-05T20:33:25.965Z,99984.48
2023-05-05T20:35:52.805Z,99983.23
2023-05-05T20:38:19.746Z,99985.02
2023-05-05T20:40:46.723Z,99985.31
2023-05-05T20:43:13.599Z,99986.84
2023-05-05T20:45:40.489Z,99989.98
2023-05-05T20:48:09.860Z,99987.69
2023-05-05T20:50:40.755Z,99980.96
2023-05-05T20:53:07.892Z,99985.19
2023-05-05T20:55:34.915Z,99982.27
2023-05-05T20:58:01.833Z,99982.09
2023-05-05T21:00:28.855Z,99986.66
2023-05-05T21:02:57.175Z,99987.15
2023-05-05T21:05:24.485Z,99984.30
2023-05-05T21:07:53.343Z,99986.02
2023-05-05T21:10:20.683Z,99983.77
2023-05-05T21:12:47.566Z,99981.18
2023-05-05T21:15:16.696Z,99979.82
2023-05-05T21:17:43.868Z,99980.73
2023-05-05T21:20:11.674Z,99983.84
2023-05-05T21:22:38.969Z,99988.56
2023-05-05T21:25:13.806Z,99987.25
2023-05-05T21:27:40.736Z,99987.92
2023-05-05T21:30:10.664Z,99985.96
2023-05-05T21:32:38.911Z,99986.52
2023-05-05T21:35:06.926Z,99986.76
2023-05-05T21:37:33.816Z,99992.38
2023-05-05T21:40:01.007Z,99999.32
2023-05-05T21:42:29.664Z,100000.39
2023-05-05T21:44:56.787Z,100001.78
2023-05-05T21:47:23.699Z,100007.05
2023-05-05T21:49:50.680Z,100011.29
2023-05-05T21:52:17.530Z,100010.01
2023-05-05T21:54:44.581Z,100014.58
2023-05-05T21:57:11.427Z,100010.41
2023-05-05T21:59:38.416Z,100012.34
2023-05-05T22:02:05.403Z,100012.57
2023-05-05T22:04:32.227Z,100013.52
2023-05-05T22:06:59.233Z,100011.75
2023-05-05T22:09:26.079Z,100013.21
2023-05-05T22:11:53.032Z,100011.54
2023-05-05T22:14:19.981Z,100014.64
2023-05-05T22:16:46.843Z,100012.89
2023-05-05T22:19:13.777Z,100018.05
2023-05-05T22:21:40.622Z,100023.27
2023-05-05T22:24:07.660Z,100022.52
2023-05-05T22:26:34.630Z,100021.23
2023-05-05T22:29:01.682Z,100017.30
2023-05-05T22:31:29.585Z,100015.56
2023-05-05T22:33:56.512Z,100014.58
2023-05-05T22:36:23.568Z,100010.70
2023-05-05T22:38:50.502Z,100010.47
2023-05-05T22:41:17.333Z,100011.17
2023-05-05T22:43:44.352Z,100014.48
2023-05-05T22:46:11.260Z,100013.30
2023-05-05T22:48:38.086Z,100013.73
2023-05-05T22:51:05.569Z,100018.56
2023-05-05T22:53:32.401Z,100012.67
2023-05-05T22:55:59.227Z,100013.44
2023-05-05T22:58:26.847Z,100015.18
2023-05-05T23:00:53.753Z,100017.20
2023-05-05T23:03:20.633Z,100017.36
2023-05-05T23:05:47.445Z,100015.64
2023-05-05T23:08:14.334Z,100014.94
2023-05-05T23:10:41.278Z,100015.69
2023-05-05T23:13:08.214Z,100019.59
2023-05-05T23:15:35.320Z,100017.03
2023-05-05T23:18:02.359Z,100022.65
2023-05-05T23:20:29.792Z,100020.98
2023-05-05T23:22:56.706Z,100021.38
2023-05-05T23:25:23.551Z,100025.73
2023-05-05T23:27:50.786Z,100026.08
2023-05-05T23:30:18.449Z,100028.40
2023-05-05T23:32:46.023Z,100028.31
2023-05-05T23:35:12.935Z,100031.23
2023-05-05T23:37:39.890Z,100029.09
2023-05-05T23:40:07.446Z,100028.84
2023-05-05T23:42:34.405Z,100030.64
2023-05-05T23:45:01.381Z,100030.98
2023-05-05T23:47:28.267Z,100033.74
2023-05-05T23:49:55.214Z,100029.13
2023-05-05T23:52:22.605Z,100031.91
2023-05-05T23:54:49.458Z,100033.66
2023-05-05T23:57:16.506Z,100039.73
2023-05-05T23:59:43.355Z,100039.34
